Portada
METAR-TAF:

METAR-TAF

Aeropuertos :

El Hierro, España

Aeropuerto de El Hierro

latitud: 27-49N, longitud: 017-53W, altitud: 32 m

Observación

El informe se hizo hace 26 minutos, a las 14:00 UTC
Viento 10 kt del norte, variando entre norte-noroeste y noreste
Temperatura 22°C
Humedad 57%
Presión 1019 hPa
Visibilidad 10 km o más
Escasas nubes a una altura de 3000 ft

METAR: GCHI 241400Z 01010KT 340V040 9999 FEW030 22/13 Q1019

Hora: 15:26 (14:26 UTC)

Pronóstico

El informe se hizo hace 6 horas y 26 minutos, a las 08:00 UTC
Pronóstico válido del 24 a las 09 UTC al 25 a las 09 UTC
Viento 11 kt del norte
Visibilidad 10 km o más
Nubes dispersas a una altura de 3000 ft
Probabilidad 30% :
Temporalmente
del 24 a las 11 UTC al 24 a las 16 UTC
Viento 5 kt del este-noreste

TAF: GCHI 240800Z 2409/2509 35011KT 9999 SCT030 TX22/2414Z TN18/2505Z PROB30 TEMPO 2411/2416 07005KT

Observaciones y pronósticos meteorológicos de más de 4000 aeropuertos (mensajes METAR y TAF).

Los puntos amarillos y rojos representan las estaciones disponibles.

Ponga el ratón en el punto deseado para ver el nombre de la estación.

Haga clic para ver las observaciones y los pronósticos meteorológicos.

Para cambiar el mapa : haga clic en los botones verdes con una cruz de color negro para hacer un zoom, en el botón verde con un guión para alejar o en las flechas verdes para mapas adyacentes.


METAR-TAF: